sensor_id;sensor_type;location;lat;lon;timestamp;P1;durP1;ratioP1;P2;durP2;ratioP2
44664;SDS011;30382;48.802;9.388;2023-03-16T00:02:27;13.50;;;9.17;;
44664;SDS011;30382;48.802;9.388;2023-03-16T00:05:12;12.30;;;9.70;;
44664;SDS011;30382;48.802;9.388;2023-03-16T00:07:57;14.03;;;8.80;;
44664;SDS011;30382;48.802;9.388;2023-03-16T00:10:42;12.20;;;8.87;;
44664;SDS011;30382;48.802;9.388;2023-03-16T00:13:32;12.80;;;8.90;;
44664;SDS011;30382;48.802;9.388;2023-03-16T00:16:17;11.97;;;8.43;;
44664;SDS011;30382;48.802;9.388;2023-03-16T00:19:01;8.80;;;7.80;;
44664;SDS011;30382;48.802;9.388;2023-03-16T00:21:49;12.17;;;8.30;;
44664;SDS011;30382;48.802;9.388;2023-03-16T00:24:35;11.30;;;9.40;;
44664;SDS011;30382;48.802;9.388;2023-03-16T00:27:20;11.30;;;9.47;;
44664;SDS011;30382;48.802;9.388;2023-03-16T00:30:05;10.20;;;8.70;;
44664;SDS011;30382;48.802;9.388;2023-03-16T00:32:50;11.73;;;9.17;;
44664;SDS011;30382;48.802;9.388;2023-03-16T00:35:36;11.47;;;9.70;;
44664;SDS011;30382;48.802;9.388;2023-03-16T00:38:21;9.83;;;8.30;;
44664;SDS011;30382;48.802;9.388;2023-03-16T00:41:06;11.43;;;9.87;;
44664;SDS011;30382;48.802;9.388;2023-03-16T00:43:51;10.00;;;8.87;;
44664;SDS011;30382;48.802;9.388;2023-03-16T00:46:36;11.50;;;8.23;;
44664;SDS011;30382;48.802;9.388;2023-03-16T00:49:21;11.80;;;8.40;;
44664;SDS011;30382;48.802;9.388;2023-03-16T00:52:06;14.07;;;8.97;;
44664;SDS011;30382;48.802;9.388;2023-03-16T00:54:52;11.63;;;8.90;;
44664;SDS011;30382;48.802;9.388;2023-03-16T00:57:36;12.57;;;8.13;;
44664;SDS011;30382;48.802;9.388;2023-03-16T01:00:21;9.83;;;8.60;;
44664;SDS011;30382;48.802;9.388;2023-03-16T01:03:09;10.60;;;8.67;;
44664;SDS011;30382;48.802;9.388;2023-03-16T01:05:54;10.63;;;8.90;;
44664;SDS011;30382;48.802;9.388;2023-03-16T01:08:44;12.27;;;9.57;;
44664;SDS011;30382;48.802;9.388;2023-03-16T01:11:28;11.20;;;8.70;;
44664;SDS011;30382;48.802;9.388;2023-03-16T01:14:13;9.23;;;8.27;;
44664;SDS011;30382;48.802;9.388;2023-03-16T01:16:58;15.03;;;9.13;;
44664;SDS011;30382;48.802;9.388;2023-03-16T01:19:43;11.40;;;9.73;;
44664;SDS011;30382;48.802;9.388;2023-03-16T01:22:27;11.73;;;8.83;;
44664;SDS011;30382;48.802;9.388;2023-03-16T01:25:12;11.30;;;9.57;;
44664;SDS011;30382;48.802;9.388;2023-03-16T01:27:59;9.57;;;8.37;;
44664;SDS011;30382;48.802;9.388;2023-03-16T01:30:45;10.47;;;9.03;;
44664;SDS011;30382;48.802;9.388;2023-03-16T01:33:29;10.47;;;8.37;;
44664;SDS011;30382;48.802;9.388;2023-03-16T01:36:14;10.33;;;8.30;;
44664;SDS011;30382;48.802;9.388;2023-03-16T01:39:06;11.87;;;8.67;;
44664;SDS011;30382;48.802;9.388;2023-03-16T01:41:54;12.73;;;9.73;;
44664;SDS011;30382;48.802;9.388;2023-03-16T01:44:50;10.00;;;8.43;;
44664;SDS011;30382;48.802;9.388;2023-03-16T01:47:35;13.97;;;8.67;;
44664;SDS011;30382;48.802;9.388;2023-03-16T01:50:23;8.67;;;7.77;;
44664;SDS011;30382;48.802;9.388;2023-03-16T01:53:08;9.50;;;8.43;;
44664;SDS011;30382;48.802;9.388;2023-03-16T01:55:52;12.97;;;8.40;;
44664;SDS011;30382;48.802;9.388;2023-03-16T01:58:38;8.67;;;7.83;;
44664;SDS011;30382;48.802;9.388;2023-03-16T02:01:24;11.07;;;8.10;;
44664;SDS011;30382;48.802;9.388;2023-03-16T02:04:12;13.10;;;9.13;;
44664;SDS011;30382;48.802;9.388;2023-03-16T02:06:59;11.53;;;9.70;;
44664;SDS011;30382;48.802;9.388;2023-03-16T02:09:44;9.83;;;8.30;;
44664;SDS011;30382;48.802;9.388;2023-03-16T02:12:30;10.40;;;9.03;;
44664;SDS011;30382;48.802;9.388;2023-03-16T02:15:16;9.60;;;8.60;;
44664;SDS011;30382;48.802;9.388;2023-03-16T02:18:01;10.57;;;8.70;;
44664;SDS011;30382;48.802;9.388;2023-03-16T02:20:51;11.63;;;8.77;;
44664;SDS011;30382;48.802;9.388;2023-03-16T02:23:40;15.10;;;9.20;;
44664;SDS011;30382;48.802;9.388;2023-03-16T02:32:39;11.90;;;8.17;;
44664;SDS011;30382;48.802;9.388;2023-03-16T02:35:24;9.80;;;8.00;;
44664;SDS011;30382;48.802;9.388;2023-03-16T02:38:09;12.30;;;8.30;;
44664;SDS011;30382;48.802;9.388;2023-03-16T02:41:18;10.60;;;8.10;;
44664;SDS011;30382;48.802;9.388;2023-03-16T02:44:15;8.53;;;7.40;;
44664;SDS011;30382;48.802;9.388;2023-03-16T02:47:12;10.00;;;7.67;;
44664;SDS011;30382;48.802;9.388;2023-03-16T02:49:59;10.43;;;7.47;;
44664;SDS011;30382;48.802;9.388;2023-03-16T02:52:45;10.13;;;7.90;;
44664;SDS011;30382;48.802;9.388;2023-03-16T02:55:31;11.00;;;8.40;;
44664;SDS011;30382;48.802;9.388;2023-03-16T02:58:16;8.47;;;7.00;;
44664;SDS011;30382;48.802;9.388;2023-03-16T03:01:00;9.53;;;7.50;;
44664;SDS011;30382;48.802;9.388;2023-03-16T03:03:45;9.90;;;7.50;;
44664;SDS011;30382;48.802;9.388;2023-03-16T03:06:29;8.40;;;7.47;;
44664;SDS011;30382;48.802;9.388;2023-03-16T03:09:15;9.67;;;7.33;;
44664;SDS011;30382;48.802;9.388;2023-03-16T03:12:00;9.80;;;7.80;;
44664;SDS011;30382;48.802;9.388;2023-03-16T03:14:44;9.30;;;7.57;;
44664;SDS011;30382;48.802;9.388;2023-03-16T03:17:29;10.10;;;8.37;;
44664;SDS011;30382;48.802;9.388;2023-03-16T03:20:14;12.70;;;8.80;;
44664;SDS011;30382;48.802;9.388;2023-03-16T03:22:59;9.20;;;7.10;;
44664;SDS011;30382;48.802;9.388;2023-03-16T03:25:44;8.40;;;7.50;;
44664;SDS011;30382;48.802;9.388;2023-03-16T03:28:29;8.23;;;6.73;;
44664;SDS011;30382;48.802;9.388;2023-03-16T03:31:14;8.73;;;7.23;;
44664;SDS011;30382;48.802;9.388;2023-03-16T03:33:58;9.00;;;8.00;;
44664;SDS011;30382;48.802;9.388;2023-03-16T03:36:43;11.20;;;8.17;;
44664;SDS011;30382;48.802;9.388;2023-03-16T03:39:27;10.80;;;7.60;;
44664;SDS011;30382;48.802;9.388;2023-03-16T03:42:11;10.83;;;8.60;;
44664;SDS011;30382;48.802;9.388;2023-03-16T03:44:56;11.10;;;9.47;;
44664;SDS011;30382;48.802;9.388;2023-03-16T03:47:40;10.70;;;8.77;;
44664;SDS011;30382;48.802;9.388;2023-03-16T03:50:27;12.73;;;9.03;;
44664;SDS011;30382;48.802;9.388;2023-03-16T03:53:33;9.17;;;7.60;;
44664;SDS011;30382;48.802;9.388;2023-03-16T03:56:52;10.27;;;8.90;;
44664;SDS011;30382;48.802;9.388;2023-03-16T03:59:37;12.63;;;8.53;;
44664;SDS011;30382;48.802;9.388;2023-03-16T04:02:45;9.63;;;8.63;;
44664;SDS011;30382;48.802;9.388;2023-03-16T04:05:39;10.50;;;8.47;;
44664;SDS011;30382;48.802;9.388;2023-03-16T04:08:25;12.37;;;9.80;;
44664;SDS011;30382;48.802;9.388;2023-03-16T04:11:09;11.50;;;8.93;;
44664;SDS011;30382;48.802;9.388;2023-03-16T04:13:55;12.93;;;8.67;;
44664;SDS011;30382;48.802;9.388;2023-03-16T04:16:39;13.03;;;9.80;;
44664;SDS011;30382;48.802;9.388;2023-03-16T04:19:24;11.27;;;9.47;;
44664;SDS011;30382;48.802;9.388;2023-03-16T04:22:10;9.60;;;8.57;;
44664;SDS011;30382;48.802;9.388;2023-03-16T04:24:56;14.00;;;8.83;;
44664;SDS011;30382;48.802;9.388;2023-03-16T04:27:43;11.37;;;8.70;;
44664;SDS011;30382;48.802;9.388;2023-03-16T04:30:27;13.90;;;9.13;;
44664;SDS011;30382;48.802;9.388;2023-03-16T04:33:22;12.93;;;9.50;;
44664;SDS011;30382;48.802;9.388;2023-03-16T04:36:07;12.30;;;9.80;;
44664;SDS011;30382;48.802;9.388;2023-03-16T04:38:54;16.80;;;10.97;;
44664;SDS011;30382;48.802;9.388;2023-03-16T04:41:38;12.97;;;10.83;;
44664;SDS011;30382;48.802;9.388;2023-03-16T04:44:28;13.60;;;10.83;;
44664;SDS011;30382;48.802;9.388;2023-03-16T04:47:14;12.40;;;9.10;;
44664;SDS011;30382;48.802;9.388;2023-03-16T04:50:00;14.80;;;9.93;;
44664;SDS011;30382;48.802;9.388;2023-03-16T04:55:29;16.63;;;12.63;;
44664;SDS011;30382;48.802;9.388;2023-03-16T04:58:14;16.20;;;11.53;;
44664;SDS011;30382;48.802;9.388;2023-03-16T05:00:58;14.57;;;10.63;;
44664;SDS011;30382;48.802;9.388;2023-03-16T05:03:46;17.10;;;11.50;;
44664;SDS011;30382;48.802;9.388;2023-03-16T05:06:31;19.27;;;12.00;;
44664;SDS011;30382;48.802;9.388;2023-03-16T05:09:17;13.33;;;11.10;;
44664;SDS011;30382;48.802;9.388;2023-03-16T05:12:03;17.70;;;13.03;;
44664;SDS011;30382;48.802;9.388;2023-03-16T05:14:48;19.30;;;13.20;;
44664;SDS011;30382;48.802;9.388;2023-03-16T05:17:51;16.90;;;10.87;;
44664;SDS011;30382;48.802;9.388;2023-03-16T05:20:37;16.53;;;11.77;;
44664;SDS011;30382;48.802;9.388;2023-03-16T05:23:22;20.93;;;14.83;;
44664;SDS011;30382;48.802;9.388;2023-03-16T05:26:12;17.43;;;13.67;;
44664;SDS011;30382;48.802;9.388;2023-03-16T05:28:58;17.10;;;13.30;;
44664;SDS011;30382;48.802;9.388;2023-03-16T05:31:44;17.50;;;12.43;;
44664;SDS011;30382;48.802;9.388;2023-03-16T05:34:33;15.50;;;11.27;;
44664;SDS011;30382;48.802;9.388;2023-03-16T05:37:18;18.70;;;13.00;;
44664;SDS011;30382;48.802;9.388;2023-03-16T05:40:04;20.40;;;13.90;;
44664;SDS011;30382;48.802;9.388;2023-03-16T05:42:58;17.73;;;11.97;;
44664;SDS011;30382;48.802;9.388;2023-03-16T05:45:44;17.90;;;12.63;;
44664;SDS011;30382;48.802;9.388;2023-03-16T05:48:32;22.83;;;14.83;;
44664;SDS011;30382;48.802;9.388;2023-03-16T05:51:19;21.20;;;14.20;;
44664;SDS011;30382;48.802;9.388;2023-03-16T05:54:04;19.80;;;13.50;;
44664;SDS011;30382;48.802;9.388;2023-03-16T05:56:55;19.23;;;14.27;;
44664;SDS011;30382;48.802;9.388;2023-03-16T05:59:39;19.70;;;13.80;;
44664;SDS011;30382;48.802;9.388;2023-03-16T06:02:26;24.33;;;14.83;;
44664;SDS011;30382;48.802;9.388;2023-03-16T06:05:11;15.23;;;11.53;;
44664;SDS011;30382;48.802;9.388;2023-03-16T06:08:00;19.20;;;12.87;;
44664;SDS011;30382;48.802;9.388;2023-03-16T06:10:46;20.30;;;14.40;;
44664;SDS011;30382;48.802;9.388;2023-03-16T06:13:33;19.93;;;14.10;;
44664;SDS011;30382;48.802;9.388;2023-03-16T06:16:17;18.23;;;13.40;;
44664;SDS011;30382;48.802;9.388;2023-03-16T06:19:02;20.80;;;14.57;;
44664;SDS011;30382;48.802;9.388;2023-03-16T06:21:49;19.20;;;13.27;;
44664;SDS011;30382;48.802;9.388;2023-03-16T06:24:35;20.40;;;14.60;;
44664;SDS011;30382;48.802;9.388;2023-03-16T06:27:19;19.97;;;14.33;;
44664;SDS011;30382;48.802;9.388;2023-03-16T06:30:17;19.93;;;14.57;;
44664;SDS011;30382;48.802;9.388;2023-03-16T06:33:01;21.00;;;14.40;;
44664;SDS011;30382;48.802;9.388;2023-03-16T06:35:46;18.63;;;12.77;;
44664;SDS011;30382;48.802;9.388;2023-03-16T06:38:38;17.73;;;12.20;;
44664;SDS011;30382;48.802;9.388;2023-03-16T06:41:52;17.23;;;12.93;;
44664;SDS011;30382;48.802;9.388;2023-03-16T06:44:37;17.63;;;13.33;;
44664;SDS011;30382;48.802;9.388;2023-03-16T06:47:26;17.37;;;13.10;;
44664;SDS011;30382;48.802;9.388;2023-03-16T06:50:10;16.60;;;11.60;;
44664;SDS011;30382;48.802;9.388;2023-03-16T06:52:56;18.30;;;13.10;;
44664;SDS011;30382;48.802;9.388;2023-03-16T06:55:41;16.93;;;12.67;;
44664;SDS011;30382;48.802;9.388;2023-03-16T06:58:26;19.80;;;13.90;;
44664;SDS011;30382;48.802;9.388;2023-03-16T07:01:10;19.27;;;13.67;;
44664;SDS011;30382;48.802;9.388;2023-03-16T07:03:55;19.57;;;14.17;;
44664;SDS011;30382;48.802;9.388;2023-03-16T07:06:44;14.70;;;11.17;;
44664;SDS011;30382;48.802;9.388;2023-03-16T07:09:30;23.20;;;12.83;;
44664;SDS011;30382;48.802;9.388;2023-03-16T07:12:14;17.57;;;12.67;;
44664;SDS011;30382;48.802;9.388;2023-03-16T07:14:59;18.13;;;12.17;;
44664;SDS011;30382;48.802;9.388;2023-03-16T07:17:44;16.20;;;12.30;;
44664;SDS011;30382;48.802;9.388;2023-03-16T07:20:29;20.10;;;13.33;;
44664;SDS011;30382;48.802;9.388;2023-03-16T07:23:17;16.87;;;11.20;;
44664;SDS011;30382;48.802;9.388;2023-03-16T07:26:01;16.17;;;13.10;;
44664;SDS011;30382;48.802;9.388;2023-03-16T07:28:47;15.57;;;11.53;;
44664;SDS011;30382;48.802;9.388;2023-03-16T07:31:33;18.20;;;10.73;;
44664;SDS011;30382;48.802;9.388;2023-03-16T07:34:19;13.70;;;9.90;;
44664;SDS011;30382;48.802;9.388;2023-03-16T07:37:09;11.13;;;10.00;;
44664;SDS011;30382;48.802;9.388;2023-03-16T07:39:54;12.20;;;9.80;;
44664;SDS011;30382;48.802;9.388;2023-03-16T07:42:38;14.63;;;10.47;;
44664;SDS011;30382;48.802;9.388;2023-03-16T07:45:27;11.67;;;10.00;;
44664;SDS011;30382;48.802;9.388;2023-03-16T07:48:11;16.87;;;10.50;;
44664;SDS011;30382;48.802;9.388;2023-03-16T07:51:03;14.83;;;10.30;;
44664;SDS011;30382;48.802;9.388;2023-03-16T07:53:48;10.77;;;9.37;;
44664;SDS011;30382;48.802;9.388;2023-03-16T07:56:41;13.20;;;10.97;;
44664;SDS011;30382;48.802;9.388;2023-03-16T07:59:26;12.43;;;9.53;;
44664;SDS011;30382;48.802;9.388;2023-03-16T08:02:11;10.60;;;9.33;;
44664;SDS011;30382;48.802;9.388;2023-03-16T08:04:56;13.20;;;11.67;;
44664;SDS011;30382;48.802;9.388;2023-03-16T08:07:40;15.30;;;10.37;;
44664;SDS011;30382;48.802;9.388;2023-03-16T08:10:29;15.73;;;11.40;;
44664;SDS011;30382;48.802;9.388;2023-03-16T08:13:21;18.70;;;10.27;;
44664;SDS011;30382;48.802;9.388;2023-03-16T08:16:06;12.70;;;8.80;;
44664;SDS011;30382;48.802;9.388;2023-03-16T08:18:56;12.23;;;8.53;;
44664;SDS011;30382;48.802;9.388;2023-03-16T08:21:40;25.53;;;10.90;;
44664;SDS011;30382;48.802;9.388;2023-03-16T08:24:25;12.73;;;8.93;;
44664;SDS011;30382;48.802;9.388;2023-03-16T08:27:10;21.17;;;10.63;;
44664;SDS011;30382;48.802;9.388;2023-03-16T08:29:57;21.60;;;8.67;;
44664;SDS011;30382;48.802;9.388;2023-03-16T08:32:48;24.13;;;10.60;;
44664;SDS011;30382;48.802;9.388;2023-03-16T08:35:33;30.77;;;10.27;;
44664;SDS011;30382;48.802;9.388;2023-03-16T08:38:19;42.40;;;14.20;;
44664;SDS011;30382;48.802;9.388;2023-03-16T08:41:04;28.03;;;11.70;;
44664;SDS011;30382;48.802;9.388;2023-03-16T08:43:49;17.60;;;10.30;;
44664;SDS011;30382;48.802;9.388;2023-03-16T08:46:34;21.23;;;9.67;;
44664;SDS011;30382;48.802;9.388;2023-03-16T08:49:18;42.87;;;12.73;;
44664;SDS011;30382;48.802;9.388;2023-03-16T08:52:06;24.77;;;10.90;;
44664;SDS011;30382;48.802;9.388;2023-03-16T08:54:53;22.17;;;11.70;;
44664;SDS011;30382;48.802;9.388;2023-03-16T08:57:38;17.80;;;9.73;;
44664;SDS011;30382;48.802;9.388;2023-03-16T09:00:22;10.50;;;7.10;;
44664;SDS011;30382;48.802;9.388;2023-03-16T09:03:06;7.63;;;6.37;;
44664;SDS011;30382;48.802;9.388;2023-03-16T09:05:51;17.60;;;6.97;;
44664;SDS011;30382;48.802;9.388;2023-03-16T09:08:35;10.30;;;7.90;;
44664;SDS011;30382;48.802;9.388;2023-03-16T09:11:22;7.90;;;6.63;;
44664;SDS011;30382;48.802;9.388;2023-03-16T09:14:06;7.90;;;7.03;;
44664;SDS011;30382;48.802;9.388;2023-03-16T09:16:51;10.47;;;7.73;;
44664;SDS011;30382;48.802;9.388;2023-03-16T09:19:35;10.23;;;5.67;;
44664;SDS011;30382;48.802;9.388;2023-03-16T09:22:20;7.30;;;6.03;;
44664;SDS011;30382;48.802;9.388;2023-03-16T09:25:04;7.90;;;6.07;;
44664;SDS011;30382;48.802;9.388;2023-03-16T09:27:49;6.30;;;5.10;;
44664;SDS011;30382;48.802;9.388;2023-03-16T09:30:34;6.40;;;5.40;;
44664;SDS011;30382;48.802;9.388;2023-03-16T09:33:19;8.57;;;5.50;;
44664;SDS011;30382;48.802;9.388;2023-03-16T09:36:04;10.03;;;5.83;;
44664;SDS011;30382;48.802;9.388;2023-03-16T09:38:48;6.80;;;4.70;;
44664;SDS011;30382;48.802;9.388;2023-03-16T09:41:53;5.80;;;5.30;;
44664;SDS011;30382;48.802;9.388;2023-03-16T09:47:30;5.73;;;4.70;;
44664;SDS011;30382;48.802;9.388;2023-03-16T09:50:19;10.47;;;5.87;;
44664;SDS011;30382;48.802;9.388;2023-03-16T09:53:07;17.73;;;6.20;;
44664;SDS011;30382;48.802;9.388;2023-03-16T09:56:03;6.93;;;4.70;;
44664;SDS011;30382;48.802;9.388;2023-03-16T09:58:47;6.80;;;4.53;;
44664;SDS011;30382;48.802;9.388;2023-03-16T10:01:38;5.43;;;4.13;;
44664;SDS011;30382;48.802;9.388;2023-03-16T10:04:27;10.30;;;4.67;;
44664;SDS011;30382;48.802;9.388;2023-03-16T10:12:54;6.57;;;5.93;;
44664;SDS011;30382;48.802;9.388;2023-03-16T10:15:42;10.10;;;4.50;;
44664;SDS011;30382;48.802;9.388;2023-03-16T10:18:31;12.63;;;4.50;;
44664;SDS011;30382;48.802;9.388;2023-03-16T10:21:18;3.77;;;3.43;;
44664;SDS011;30382;48.802;9.388;2023-03-16T10:24:04;8.47;;;3.40;;
44664;SDS011;30382;48.802;9.388;2023-03-16T10:26:55;4.93;;;4.40;;
44664;SDS011;30382;48.802;9.388;2023-03-16T10:29:44;10.53;;;5.20;;
44664;SDS011;30382;48.802;9.388;2023-03-16T10:32:29;5.43;;;4.00;;
44664;SDS011;30382;48.802;9.388;2023-03-16T10:35:19;7.97;;;3.90;;
44664;SDS011;30382;48.802;9.388;2023-03-16T10:38:06;5.83;;;4.27;;
44664;SDS011;30382;48.802;9.388;2023-03-16T10:40:51;5.83;;;3.80;;
44664;SDS011;30382;48.802;9.388;2023-03-16T10:43:35;5.67;;;4.00;;
44664;SDS011;30382;48.802;9.388;2023-03-16T10:46:20;5.33;;;4.20;;
44664;SDS011;30382;48.802;9.388;2023-03-16T10:49:05;7.10;;;4.10;;
44664;SDS011;30382;48.802;9.388;2023-03-16T10:51:51;6.33;;;3.80;;
44664;SDS011;30382;48.802;9.388;2023-03-16T10:54:37;4.87;;;4.20;;
44664;SDS011;30382;48.802;9.388;2023-03-16T11:02:58;7.70;;;3.50;;
44664;SDS011;30382;48.802;9.388;2023-03-16T11:05:42;12.20;;;5.27;;
44664;SDS011;30382;48.802;9.388;2023-03-16T11:08:34;4.03;;;3.73;;
44664;SDS011;30382;48.802;9.388;2023-03-16T11:11:23;19.53;;;5.70;;
44664;SDS011;30382;48.802;9.388;2023-03-16T11:14:10;6.67;;;3.63;;
44664;SDS011;30382;48.802;9.388;2023-03-16T11:17:01;6.90;;;4.20;;
44664;SDS011;30382;48.802;9.388;2023-03-16T11:22:34;10.90;;;4.53;;
44664;SDS011;30382;48.802;9.388;2023-03-16T11:25:31;5.97;;;3.80;;
44664;SDS011;30382;48.802;9.388;2023-03-16T11:31:12;8.30;;;3.77;;
44664;SDS011;30382;48.802;9.388;2023-03-16T11:33:57;4.40;;;3.83;;
44664;SDS011;30382;48.802;9.388;2023-03-16T11:36:43;4.47;;;3.50;;
44664;SDS011;30382;48.802;9.388;2023-03-16T11:39:32;4.07;;;3.77;;
44664;SDS011;30382;48.802;9.388;2023-03-16T11:42:36;5.17;;;3.70;;
44664;SDS011;30382;48.802;9.388;2023-03-16T11:52:10;3.03;;;2.83;;
44664;SDS011;30382;48.802;9.388;2023-03-16T12:00:19;3.77;;;2.90;;
44664;SDS011;30382;48.802;9.388;2023-03-16T12:03:23;3.60;;;3.07;;
44664;SDS011;30382;48.802;9.388;2023-03-16T12:07:12;4.23;;;3.10;;
44664;SDS011;30382;48.802;9.388;2023-03-16T12:15:42;13.70;;;6.60;;
44664;SDS011;30382;48.802;9.388;2023-03-16T12:21:24;4.77;;;3.57;;
44664;SDS011;30382;48.802;9.388;2023-03-16T12:24:11;4.93;;;3.07;;
44664;SDS011;30382;48.802;9.388;2023-03-16T12:26:57;4.20;;;3.40;;
44664;SDS011;30382;48.802;9.388;2023-03-16T12:38:20;3.50;;;3.20;;
44664;SDS011;30382;48.802;9.388;2023-03-16T12:49:26;6.10;;;3.20;;
44664;SDS011;30382;48.802;9.388;2023-03-16T12:52:14;3.10;;;2.80;;
44664;SDS011;30382;48.802;9.388;2023-03-16T12:55:06;4.03;;;2.80;;
44664;SDS011;30382;48.802;9.388;2023-03-16T12:57:57;5.30;;;3.10;;
44664;SDS011;30382;48.802;9.388;2023-03-16T13:00:43;4.30;;;3.00;;
44664;SDS011;30382;48.802;9.388;2023-03-16T13:03:38;4.30;;;2.90;;
44664;SDS011;30382;48.802;9.388;2023-03-16T13:06:24;3.70;;;3.40;;
44664;SDS011;30382;48.802;9.388;2023-03-16T13:09:23;2.93;;;2.50;;
44664;SDS011;30382;48.802;9.388;2023-03-16T13:12:19;4.20;;;2.90;;
44664;SDS011;30382;48.802;9.388;2023-03-16T13:18:19;5.30;;;3.07;;
44664;SDS011;30382;48.802;9.388;2023-03-16T13:27:19;3.50;;;3.20;;
44664;SDS011;30382;48.802;9.388;2023-03-16T13:33:23;3.23;;;2.37;;
44664;SDS011;30382;48.802;9.388;2023-03-16T13:36:06;3.27;;;2.97;;
44664;SDS011;30382;48.802;9.388;2023-03-16T13:41:53;4.00;;;3.20;;
44664;SDS011;30382;48.802;9.388;2023-03-16T13:44:42;4.20;;;3.23;;
44664;SDS011;30382;48.802;9.388;2023-03-16T13:47:36;4.10;;;3.20;;
44664;SDS011;30382;48.802;9.388;2023-03-16T13:50:25;3.23;;;3.03;;
44664;SDS011;30382;48.802;9.388;2023-03-16T13:53:29;5.73;;;3.60;;
44664;SDS011;30382;48.802;9.388;2023-03-16T13:56:16;5.23;;;3.00;;
44664;SDS011;30382;48.802;9.388;2023-03-16T13:59:01;4.10;;;3.17;;
44664;SDS011;30382;48.802;9.388;2023-03-16T14:01:47;3.97;;;3.03;;
44664;SDS011;30382;48.802;9.388;2023-03-16T14:04:32;2.70;;;2.50;;
44664;SDS011;30382;48.802;9.388;2023-03-16T14:07:18;4.13;;;3.67;;
44664;SDS011;30382;48.802;9.388;2023-03-16T14:10:04;3.63;;;3.33;;
44664;SDS011;30382;48.802;9.388;2023-03-16T14:12:55;3.63;;;3.30;;
44664;SDS011;30382;48.802;9.388;2023-03-16T14:15:41;3.90;;;3.30;;
44664;SDS011;30382;48.802;9.388;2023-03-16T14:18:28;11.63;;;4.37;;
44664;SDS011;30382;48.802;9.388;2023-03-16T14:21:16;4.43;;;3.50;;
44664;SDS011;30382;48.802;9.388;2023-03-16T14:24:02;4.33;;;4.00;;
44664;SDS011;30382;48.802;9.388;2023-03-16T14:26:48;7.63;;;6.93;;
44664;SDS011;30382;48.802;9.388;2023-03-16T14:29:32;4.70;;;4.30;;
44664;SDS011;30382;48.802;9.388;2023-03-16T14:32:19;4.27;;;3.87;;
44664;SDS011;30382;48.802;9.388;2023-03-16T14:35:16;4.83;;;4.37;;
44664;SDS011;30382;48.802;9.388;2023-03-16T14:43:56;8.20;;;6.00;;
44664;SDS011;30382;48.802;9.388;2023-03-16T14:46:41;10.03;;;5.03;;
44664;SDS011;30382;48.802;9.388;2023-03-16T14:49:32;5.17;;;4.67;;
44664;SDS011;30382;48.802;9.388;2023-03-16T14:52:30;4.77;;;4.10;;
44664;SDS011;30382;48.802;9.388;2023-03-16T14:55:16;4.00;;;3.60;;
44664;SDS011;30382;48.802;9.388;2023-03-16T14:58:02;6.40;;;5.60;;
44664;SDS011;30382;48.802;9.388;2023-03-16T15:00:47;5.03;;;4.60;;
44664;SDS011;30382;48.802;9.388;2023-03-16T15:03:35;12.07;;;5.87;;
44664;SDS011;30382;48.802;9.388;2023-03-16T15:06:21;8.20;;;4.80;;
44664;SDS011;30382;48.802;9.388;2023-03-16T15:09:05;4.97;;;4.00;;
44664;SDS011;30382;48.802;9.388;2023-03-16T15:11:51;5.00;;;4.47;;
44664;SDS011;30382;48.802;9.388;2023-03-16T15:14:38;6.77;;;4.17;;
44664;SDS011;30382;48.802;9.388;2023-03-16T15:17:42;5.73;;;4.80;;
44664;SDS011;30382;48.802;9.388;2023-03-16T15:20:28;5.17;;;4.67;;
44664;SDS011;30382;48.802;9.388;2023-03-16T15:23:14;9.07;;;4.90;;
44664;SDS011;30382;48.802;9.388;2023-03-16T15:25:59;8.47;;;4.80;;
44664;SDS011;30382;48.802;9.388;2023-03-16T15:28:45;12.90;;;5.23;;
44664;SDS011;30382;48.802;9.388;2023-03-16T15:31:30;7.30;;;4.90;;
44664;SDS011;30382;48.802;9.388;2023-03-16T15:34:14;5.73;;;5.23;;
44664;SDS011;30382;48.802;9.388;2023-03-16T15:36:59;5.57;;;4.00;;
44664;SDS011;30382;48.802;9.388;2023-03-16T15:39:44;5.17;;;3.83;;
44664;SDS011;30382;48.802;9.388;2023-03-16T15:42:29;4.53;;;4.13;;
44664;SDS011;30382;48.802;9.388;2023-03-16T15:45:15;10.97;;;4.50;;
44664;SDS011;30382;48.802;9.388;2023-03-16T15:48:03;6.20;;;4.80;;
44664;SDS011;30382;48.802;9.388;2023-03-16T15:51:34;5.63;;;5.13;;
44664;SDS011;30382;48.802;9.388;2023-03-16T15:53:53;5.37;;;3.87;;
44664;SDS011;30382;48.802;9.388;2023-03-16T15:56:40;5.10;;;3.97;;
44664;SDS011;30382;48.802;9.388;2023-03-16T15:59:30;7.63;;;3.83;;
44664;SDS011;30382;48.802;9.388;2023-03-16T16:02:24;3.97;;;3.63;;
44664;SDS011;30382;48.802;9.388;2023-03-16T16:05:11;6.57;;;3.60;;
44664;SDS011;30382;48.802;9.388;2023-03-16T16:07:56;4.50;;;3.47;;
44664;SDS011;30382;48.802;9.388;2023-03-16T16:10:41;5.37;;;3.50;;
44664;SDS011;30382;48.802;9.388;2023-03-16T16:13:26;4.20;;;3.30;;
44664;SDS011;30382;48.802;9.388;2023-03-16T16:16:12;2.90;;;2.70;;
44664;SDS011;30382;48.802;9.388;2023-03-16T16:18:57;6.10;;;3.57;;
44664;SDS011;30382;48.802;9.388;2023-03-16T16:21:42;2.70;;;2.30;;
44664;SDS011;30382;48.802;9.388;2023-03-16T16:24:27;5.57;;;2.77;;
44664;SDS011;30382;48.802;9.388;2023-03-16T16:27:11;4.50;;;2.33;;
44664;SDS011;30382;48.802;9.388;2023-03-16T16:29:56;5.47;;;3.40;;
44664;SDS011;30382;48.802;9.388;2023-03-16T16:32:40;4.97;;;2.50;;
44664;SDS011;30382;48.802;9.388;2023-03-16T16:35:25;3.43;;;2.27;;
44664;SDS011;30382;48.802;9.388;2023-03-16T16:38:10;5.17;;;3.40;;
44664;SDS011;30382;48.802;9.388;2023-03-16T16:40:55;4.53;;;2.60;;
44664;SDS011;30382;48.802;9.388;2023-03-16T16:43:42;3.43;;;2.03;;
44664;SDS011;30382;48.802;9.388;2023-03-16T16:46:29;2.70;;;2.00;;
44664;SDS011;30382;48.802;9.388;2023-03-16T16:49:23;2.70;;;2.50;;
44664;SDS011;30382;48.802;9.388;2023-03-16T16:52:11;2.97;;;2.20;;
44664;SDS011;30382;48.802;9.388;2023-03-16T16:54:58;4.13;;;2.20;;
44664;SDS011;30382;48.802;9.388;2023-03-16T16:57:43;2.40;;;2.20;;
44664;SDS011;30382;48.802;9.388;2023-03-16T17:00:27;4.10;;;2.10;;
44664;SDS011;30382;48.802;9.388;2023-03-16T17:03:23;3.67;;;2.27;;
44664;SDS011;30382;48.802;9.388;2023-03-16T17:06:12;4.03;;;2.77;;
44664;SDS011;30382;48.802;9.388;2023-03-16T17:08:58;3.87;;;2.50;;
44664;SDS011;30382;48.802;9.388;2023-03-16T17:11:42;2.67;;;2.40;;
44664;SDS011;30382;48.802;9.388;2023-03-16T17:14:28;5.40;;;2.80;;
44664;SDS011;30382;48.802;9.388;2023-03-16T17:17:14;3.47;;;3.17;;
44664;SDS011;30382;48.802;9.388;2023-03-16T17:20:00;8.20;;;3.10;;
44664;SDS011;30382;48.802;9.388;2023-03-16T17:22:48;6.43;;;3.23;;
44664;SDS011;30382;48.802;9.388;2023-03-16T17:25:34;3.00;;;2.70;;
44664;SDS011;30382;48.802;9.388;2023-03-16T17:28:19;4.07;;;3.67;;
44664;SDS011;30382;48.802;9.388;2023-03-16T17:31:04;7.47;;;4.40;;
44664;SDS011;30382;48.802;9.388;2023-03-16T17:33:52;11.27;;;5.57;;
44664;SDS011;30382;48.802;9.388;2023-03-16T17:36:37;13.23;;;6.30;;
44664;SDS011;30382;48.802;9.388;2023-03-16T17:39:22;6.03;;;4.00;;
44664;SDS011;30382;48.802;9.388;2023-03-16T17:44:55;5.90;;;4.20;;
44664;SDS011;30382;48.802;9.388;2023-03-16T17:47:39;5.00;;;4.43;;
44664;SDS011;30382;48.802;9.388;2023-03-16T17:50:25;4.70;;;4.30;;
44664;SDS011;30382;48.802;9.388;2023-03-16T17:53:13;7.33;;;6.73;;
44664;SDS011;30382;48.802;9.388;2023-03-16T17:55:57;9.50;;;7.87;;
44664;SDS011;30382;48.802;9.388;2023-03-16T17:58:42;7.30;;;4.90;;
44664;SDS011;30382;48.802;9.388;2023-03-16T18:01:29;6.13;;;4.67;;
44664;SDS011;30382;48.802;9.388;2023-03-16T18:04:17;4.10;;;3.47;;
44664;SDS011;30382;48.802;9.388;2023-03-16T18:07:02;4.40;;;3.50;;
44664;SDS011;30382;48.802;9.388;2023-03-16T18:09:49;5.23;;;4.73;;